createdAt,value
2017-08-29T00:00:30.640Z,9.33
2017-08-29T00:03:02.468Z,8.73
2017-08-29T00:05:31.709Z,9.20
2017-08-29T00:08:00.967Z,9.87
2017-08-29T00:10:33.133Z,8.80
2017-08-29T00:13:03.054Z,9.70
2017-08-29T00:15:33.209Z,9.43
2017-08-29T00:18:05.859Z,9.67
2017-08-29T00:20:32.401Z,9.63
2017-08-29T00:23:01.001Z,9.70
2017-08-29T00:25:39.347Z,10.33
2017-08-29T00:28:07.286Z,9.57
2017-08-29T00:30:33.917Z,10.57
2017-08-29T00:33:02.934Z,9.90
2017-08-29T00:35:32.798Z,9.30
2017-08-29T00:38:02.927Z,10.60
2017-08-29T00:40:30.812Z,10.37
2017-08-29T00:43:13.584Z,10.60
2017-08-29T00:45:42.889Z,11.10
2017-08-29T00:48:12.222Z,10.50
2017-08-29T00:50:38.749Z,9.73
2017-08-29T00:53:05.267Z,10.67
2017-08-29T00:55:31.848Z,10.30
2017-08-29T00:58:02.755Z,10.80
2017-08-29T01:00:32.128Z,10.10
2017-08-29T01:03:03.821Z,10.57
2017-08-29T01:05:31.123Z,9.93
2017-08-29T01:08:03.454Z,10.20
2017-08-29T01:10:32.055Z,11.50
2017-08-29T01:13:02.129Z,11.13
2017-08-29T01:15:33.046Z,11.53
2017-08-29T01:18:02.762Z,11.90
2017-08-29T01:20:40.701Z,10.67
2017-08-29T01:23:09.130Z,12.40
2017-08-29T01:25:35.691Z,11.90
2017-08-29T01:28:02.236Z,12.77
2017-08-29T01:30:30.997Z,11.30
2017-08-29T01:33:02.772Z,11.37
2017-08-29T01:35:31.370Z,12.50
2017-08-29T01:38:00.936Z,12.77
2017-08-29T01:40:32.173Z,12.63
2017-08-29T01:43:00.076Z,12.40
2017-08-29T01:45:30.975Z,12.47
2017-08-29T01:48:02.097Z,12.53
2017-08-29T01:50:30.170Z,12.73
2017-08-29T01:53:00.132Z,13.60
2017-08-29T01:55:31.179Z,12.43
2017-08-29T01:58:02.165Z,13.67
2017-08-29T02:00:32.328Z,12.93
2017-08-29T02:03:01.390Z,12.60
2017-08-29T02:05:30.854Z,12.20
2017-08-29T02:08:17.558Z,11.90
2017-08-29T02:11:03.262Z,12.43
2017-08-29T02:13:31.236Z,13.30
2017-08-29T02:16:01.070Z,12.50
2017-08-29T02:18:30.109Z,13.07
2017-08-29T02:21:02.108Z,13.13
2017-08-29T02:23:30.345Z,12.30
2017-08-29T02:25:59.963Z,11.87
2017-08-29T02:28:28.795Z,13.07
2017-08-29T02:30:59.900Z,12.67
2017-08-29T02:33:38.169Z,12.37
2017-08-29T02:36:05.182Z,13.90
2017-08-29T02:38:31.781Z,12.43
2017-08-29T02:41:02.157Z,13.73
2017-08-29T02:43:33.594Z,12.80
2017-08-29T02:46:20.840Z,13.13
2017-08-29T02:49:07.729Z,14.07
2017-08-29T02:51:37.194Z,12.90
2017-08-29T02:54:03.482Z,13.40
2017-08-29T02:56:32.182Z,13.23
2017-08-29T02:59:03.103Z,13.90
2017-08-29T03:01:38.405Z,14.57
2017-08-29T03:04:04.824Z,14.87
2017-08-29T03:06:32.349Z,12.93
2017-08-29T03:09:00.494Z,15.83
2017-08-29T03:11:30.026Z,14.87
2017-08-29T03:14:00.413Z,14.47
2017-08-29T03:16:27.617Z,14.70
2017-08-29T03:19:00.814Z,13.43
2017-08-29T03:21:32.402Z,14.30
2017-08-29T03:24:00.453Z,14.73
2017-08-29T03:26:30.375Z,14.43
2017-08-29T03:29:11.387Z,14.60
2017-08-29T03:31:54.457Z,16.77
2017-08-29T03:34:24.572Z,14.97
2017-08-29T03:37:06.323Z,14.30
2017-08-29T03:39:45.036Z,16.07
2017-08-29T03:42:12.774Z,14.90
2017-08-29T03:44:41.122Z,14.23
2017-08-29T03:47:07.810Z,15.33
2017-08-29T03:49:34.397Z,14.37
2017-08-29T03:52:09.617Z,16.70
2017-08-29T03:54:48.029Z,14.10
2017-08-29T03:57:27.502Z,16.83
2017-08-29T04:00:00.361Z,17.10
2017-08-29T04:02:31.560Z,15.70
2017-08-29T04:05:02.800Z,15.53
2017-08-29T04:07:30.704Z,17.40
2017-08-29T04:09:59.142Z,17.37
2017-08-29T04:12:40.974Z,17.03
2017-08-29T04:15:10.038Z,17.40
2017-08-29T04:17:36.538Z,18.17
2017-08-29T04:20:02.847Z,17.23
2017-08-29T04:22:30.776Z,16.40
2017-08-29T04:25:01.143Z,16.20
2017-08-29T04:28:06.930Z,16.07
2017-08-29T04:30:36.509Z,16.53
2017-08-29T04:33:03.120Z,16.90
2017-08-29T04:35:31.750Z,17.30
2017-08-29T04:38:00.786Z,18.60
2017-08-29T04:43:32.168Z,17.50
2017-08-29T04:46:03.845Z,17.93
2017-08-29T04:48:32.823Z,17.20
2017-08-29T04:51:02.903Z,17.13
2017-08-29T04:54:00.689Z,17.00
2017-08-29T04:56:32.961Z,18.27
2017-08-29T05:02:08.053Z,17.70
2017-08-29T05:04:34.903Z,19.40
2017-08-29T05:07:01.639Z,20.70
2017-08-29T05:09:33.073Z,19.17
2017-08-29T05:12:02.878Z,18.53
2017-08-29T05:14:32.192Z,19.80
2017-08-29T05:20:02.938Z,17.50
2017-08-29T05:22:33.206Z,19.00
2017-08-29T05:25:02.427Z,19.40
2017-08-29T05:27:50.543Z,18.67
2017-08-29T05:30:34.422Z,17.97
2017-08-29T05:33:01.066Z,18.60
2017-08-29T05:35:31.538Z,18.07
2017-08-29T05:38:02.111Z,17.57
2017-08-29T05:40:31.594Z,17.77
2017-08-29T05:43:01.353Z,18.00
2017-08-29T05:45:32.085Z,19.00
2017-08-29T05:48:28.672Z,19.17
2017-08-29T05:51:36.129Z,21.40
2017-08-29T05:54:46.299Z,19.23
2017-08-29T05:57:32.386Z,20.97
2017-08-29T06:00:00.415Z,20.60
2017-08-29T06:02:29.345Z,20.23
2017-08-29T06:05:30.210Z,19.30
2017-08-29T06:08:02.536Z,22.10
2017-08-29T06:10:30.746Z,22.83
2017-08-29T06:13:00.417Z,19.53
2017-08-29T06:15:30.447Z,20.87
2017-08-29T06:18:00.724Z,20.43
2017-08-29T06:21:05.862Z,20.27
2017-08-29T06:23:33.358Z,19.57
2017-08-29T06:26:02.523Z,18.43
2017-08-29T06:28:36.544Z,20.57
2017-08-29T06:31:02.985Z,19.53
2017-08-29T06:33:38.368Z,19.20
2017-08-29T06:36:04.834Z,17.43
2017-08-29T06:38:33.448Z,16.83
2017-08-29T06:41:01.430Z,16.50
2017-08-29T06:43:29.982Z,16.43
2017-08-29T06:45:59.564Z,16.43
2017-08-29T06:48:30.579Z,12.90
2017-08-29T06:50:57.806Z,12.70
2017-08-29T06:53:28.780Z,13.13
2017-08-29T06:56:00.728Z,12.03
2017-08-29T06:58:30.377Z,12.80
2017-08-29T07:00:59.615Z,11.50
2017-08-29T07:03:30.047Z,13.47
2017-08-29T07:05:58.473Z,11.63
2017-08-29T07:08:31.082Z,12.73
2017-08-29T07:10:57.382Z,11.60
2017-08-29T07:13:27.760Z,10.17
2017-08-29T07:16:00.679Z,11.13
2017-08-29T07:18:30.511Z,12.23
2017-08-29T07:21:00.794Z,11.70
2017-08-29T07:23:32.465Z,10.77
2017-08-29T07:26:09.001Z,12.40
2017-08-29T07:28:39.827Z,12.07
2017-08-29T07:31:06.388Z,12.00
2017-08-29T07:33:32.887Z,11.37
2017-08-29T07:35:59.456Z,11.33
2017-08-29T07:38:33.654Z,12.10
2017-08-29T07:41:03.761Z,11.43
2017-08-29T07:43:30.341Z,12.77
2017-08-29T07:45:59.360Z,12.03
2017-08-29T07:48:54.059Z,12.00
2017-08-29T07:51:38.226Z,11.90
2017-08-29T07:54:05.060Z,13.00
2017-08-29T07:56:31.558Z,13.23
2017-08-29T07:58:59.251Z,13.37
2017-08-29T08:01:36.092Z,13.27
2017-08-29T08:04:06.584Z,12.17
2017-08-29T08:06:34.514Z,12.70
2017-08-29T08:09:01.203Z,12.87
2017-08-29T08:14:05.042Z,12.37
2017-08-29T08:16:34.630Z,12.40
2017-08-29T08:19:03.041Z,13.10
2017-08-29T08:21:30.116Z,12.50
2017-08-29T08:24:00.168Z,13.23
2017-08-29T08:26:35.269Z,14.33
2017-08-29T08:29:03.836Z,14.80
2017-08-29T08:31:30.630Z,14.77
2017-08-29T08:34:02.177Z,14.70
2017-08-29T08:36:43.335Z,16.17
2017-08-29T08:39:34.531Z,14.57
2017-08-29T08:42:01.742Z,14.60
2017-08-29T08:44:30.022Z,15.43
2017-08-29T08:46:58.088Z,14.27
2017-08-29T08:49:38.041Z,14.33
2017-08-29T08:52:06.220Z,17.20
2017-08-29T08:54:32.993Z,15.07
2017-08-29T08:57:00.351Z,16.27
2017-08-29T08:59:34.958Z,16.70
2017-08-29T09:02:05.285Z,15.60
2017-08-29T09:04:32.598Z,15.63
2017-08-29T09:07:00.965Z,14.53
2017-08-29T09:09:30.181Z,15.53
2017-08-29T09:12:01.981Z,15.60
2017-08-29T09:14:32.573Z,15.00
2017-08-29T09:17:00.807Z,14.50
2017-08-29T09:19:29.360Z,14.97
2017-08-29T09:21:57.730Z,16.77
2017-08-29T09:24:33.296Z,14.60
2017-08-29T09:27:02.821Z,14.77
2017-08-29T09:29:30.728Z,12.67
2017-08-29T09:32:07.904Z,14.20
2017-08-29T09:34:40.709Z,13.43
2017-08-29T09:37:10.186Z,14.13
2017-08-29T09:39:36.502Z,15.53
2017-08-29T09:42:03.003Z,14.10
2017-08-29T09:44:29.905Z,13.63
2017-08-29T09:47:05.427Z,12.93
2017-08-29T09:49:34.912Z,13.30
2017-08-29T09:52:01.227Z,12.83
2017-08-29T09:54:49.729Z,12.60
2017-08-29T09:57:20.005Z,13.20
2017-08-29T09:59:54.512Z,13.20
2017-08-29T10:02:39.825Z,12.67
2017-08-29T10:05:06.302Z,15.07
2017-08-29T10:07:32.845Z,16.30
2017-08-29T10:10:04.786Z,14.00
2017-08-29T10:12:37.299Z,12.93
2017-08-29T10:15:06.639Z,14.53
2017-08-29T10:17:33.772Z,12.97
2017-08-29T10:20:00.399Z,13.40
2017-08-29T10:22:36.018Z,13.70
2017-08-29T10:25:06.475Z,12.70
2017-08-29T10:27:34.105Z,12.27
2017-08-29T10:30:00.799Z,13.80
2017-08-29T10:32:32.414Z,12.57
2017-08-29T10:35:04.843Z,13.23
2017-08-29T10:37:39.725Z,12.87
2017-08-29T10:40:06.254Z,12.30
2017-08-29T10:42:32.918Z,12.57
2017-08-29T10:45:00.887Z,11.53
2017-08-29T10:47:42.535Z,10.60
2017-08-29T10:50:09.334Z,12.03
2017-08-29T10:52:35.825Z,10.60
2017-08-29T10:55:04.114Z,11.90
2017-08-29T10:57:55.859Z,10.97
2017-08-29T11:00:37.525Z,10.90
2017-08-29T11:03:05.135Z,10.03
2017-08-29T11:05:33.078Z,10.00
2017-08-29T11:08:33.018Z,11.60
2017-08-29T11:11:08.370Z,10.90
2017-08-29T11:13:38.846Z,9.13
2017-08-29T11:16:05.318Z,9.17
2017-08-29T11:18:32.101Z,9.90
2017-08-29T11:21:04.696Z,9.77
2017-08-29T11:23:41.658Z,8.40
2017-08-29T11:26:08.233Z,8.00
2017-08-29T11:28:34.774Z,9.13
2017-08-29T11:34:11.552Z,9.80
2017-08-29T11:36:38.096Z,8.43
2017-08-29T11:39:04.641Z,8.50
2017-08-29T11:41:32.076Z,9.63
2017-08-29T11:51:00.260Z,8.60
2017-08-29T11:53:42.544Z,8.70
2017-08-29T11:56:41.014Z,8.07
2017-08-29T11:59:08.963Z,9.93
2017-08-29T12:01:35.942Z,10.13
2017-08-29T12:04:04.265Z,9.10
2017-08-29T12:09:40.618Z,7.83
2017-08-29T12:12:07.387Z,7.63
2017-08-29T12:14:33.791Z,8.40
2017-08-29T12:23:49.380Z,7.77
2017-08-29T12:26:24.925Z,7.67
2017-08-29T12:29:09.553Z,7.27
2017-08-29T12:31:35.896Z,8.03
2017-08-29T12:34:03.272Z,6.93
2017-08-29T12:37:00.925Z,8.20
2017-08-29T12:42:37.895Z,6.47
2017-08-29T12:45:06.471Z,7.90
2017-08-29T12:47:33.158Z,8.20
2017-08-29T12:53:24.790Z,6.87
2017-08-29T13:02:08.943Z,8.00
2017-08-29T13:04:35.543Z,8.07
2017-08-29T13:07:02.476Z,8.40
2017-08-29T13:09:54.791Z,8.50
2017-08-29T13:22:29.686Z,6.60
2017-08-29T13:25:10.989Z,7.03
2017-08-29T13:27:39.311Z,7.33
2017-08-29T13:30:06.137Z,7.80
2017-08-29T13:38:30.477Z,7.70
2017-08-29T13:41:05.041Z,8.43
2017-08-29T13:43:36.744Z,7.23
2017-08-29T13:46:03.311Z,7.60
2017-08-29T13:48:32.800Z,7.50
2017-08-29T13:51:30.015Z,7.87
2017-08-29T13:54:12.724Z,6.90
2017-08-29T13:56:39.215Z,7.40
2017-08-29T13:59:05.907Z,7.77
2017-08-29T14:01:45.757Z,7.60
2017-08-29T14:04:26.966Z,7.10
2017-08-29T14:07:01.787Z,7.60
2017-08-29T14:09:33.242Z,6.30
2017-08-29T14:15:01.430Z,6.60
2017-08-29T14:17:40.121Z,6.90
2017-08-29T14:20:07.455Z,7.20
2017-08-29T14:22:33.813Z,6.70
2017-08-29T14:25:03.330Z,7.83
2017-08-29T14:27:53.927Z,7.80
2017-08-29T14:30:24.995Z,6.47
2017-08-29T14:33:09.842Z,7.90
2017-08-29T14:35:37.157Z,7.87
2017-08-29T14:38:05.762Z,6.93
2017-08-29T14:40:32.204Z,7.63
2017-08-29T14:43:10.582Z,8.10
2017-08-29T14:46:10.967Z,8.07
2017-08-29T14:55:08.490Z,8.73
2017-08-29T14:57:35.151Z,9.00
2017-08-29T15:00:01.805Z,10.10
2017-08-29T15:03:00.378Z,9.13
2017-08-29T15:05:56.805Z,9.73
2017-08-29T15:08:51.754Z,8.87
2017-08-29T15:11:51.718Z,8.53
2017-08-29T15:23:12.061Z,8.70
2017-08-29T15:25:38.565Z,9.30
2017-08-29T15:28:05.047Z,9.60
2017-08-29T15:30:32.849Z,9.33
2017-08-29T15:33:25.126Z,9.47
2017-08-29T15:39:11.199Z,9.13
2017-08-29T15:41:38.286Z,10.10
2017-08-29T15:47:37.203Z,10.27
2017-08-29T15:53:40.969Z,9.93
2017-08-29T15:56:07.552Z,10.47
2017-08-29T15:58:34.111Z,9.27
2017-08-29T16:01:00.651Z,10.50
2017-08-29T16:03:46.518Z,10.17
2017-08-29T16:06:29.861Z,10.60
2017-08-29T16:09:03.276Z,11.40
2017-08-29T16:11:31.313Z,10.67
2017-08-29T16:13:59.310Z,10.20
2017-08-29T16:16:33.322Z,10.53
2017-08-29T16:19:01.013Z,10.20
2017-08-29T16:21:30.757Z,9.87
2017-08-29T16:24:03.088Z,9.93
2017-08-29T16:26:32.426Z,9.67
2017-08-29T16:29:05.776Z,9.13
2017-08-29T16:31:32.613Z,9.73
2017-08-29T16:34:06.140Z,8.93
2017-08-29T16:36:34.896Z,8.90
2017-08-29T16:39:01.439Z,9.13
2017-08-29T16:41:28.190Z,9.43
2017-08-29T16:43:55.289Z,9.80
2017-08-29T16:46:22.400Z,8.73
2017-08-29T16:48:49.646Z,8.37
2017-08-29T16:51:24.722Z,8.90
2017-08-29T16:53:58.146Z,9.17
2017-08-29T16:56:32.175Z,9.20
2017-08-29T16:59:00.619Z,9.10
2017-08-29T17:01:34.272Z,9.07
2017-08-29T17:04:02.849Z,8.50
2017-08-29T17:06:30.730Z,8.27
2017-08-29T17:08:59.218Z,9.87
2017-08-29T17:11:27.932Z,8.80
2017-08-29T17:14:04.259Z,9.10
2017-08-29T17:16:32.953Z,9.20
2017-08-29T17:19:01.030Z,9.30
2017-08-29T17:21:35.711Z,9.53
2017-08-29T17:24:08.706Z,9.60
2017-08-29T17:26:35.861Z,9.63
2017-08-29T17:29:02.970Z,9.00
2017-08-29T17:31:41.007Z,9.47
2017-08-29T17:34:08.132Z,9.40
2017-08-29T17:36:34.404Z,9.03
2017-08-29T17:39:03.194Z,9.33
2017-08-29T17:41:44.845Z,8.83
2017-08-29T17:44:13.157Z,8.73
2017-08-29T17:46:39.581Z,8.60
2017-08-29T17:49:05.948Z,9.30
2017-08-29T17:51:40.613Z,8.70
2017-08-29T17:54:06.976Z,8.47
2017-08-29T17:56:33.415Z,9.30
2017-08-29T17:59:01.318Z,9.30
2017-08-29T18:04:07.022Z,8.70
2017-08-29T18:06:34.389Z,8.40
2017-08-29T18:09:02.638Z,8.33
2017-08-29T18:11:34.881Z,8.83
2017-08-29T18:14:02.230Z,9.40
2017-08-29T18:17:02.979Z,8.97
2017-08-29T18:22:59.612Z,9.43
2017-08-29T18:25:41.918Z,9.40
2017-08-29T18:28:08.601Z,9.20
2017-08-29T18:30:42.663Z,11.50
2017-08-29T18:33:08.961Z,10.53
2017-08-29T18:35:36.173Z,10.03
2017-08-29T18:38:02.667Z,10.10
2017-08-29T18:40:32.116Z,9.50
2017-08-29T18:43:00.679Z,8.60
2017-08-29T18:45:29.834Z,10.13
2017-08-29T18:48:02.092Z,9.83
2017-08-29T18:50:33.137Z,9.80
2017-08-29T18:53:03.973Z,10.93
2017-08-29T18:55:32.120Z,10.37
2017-08-29T18:58:03.327Z,9.60
2017-08-29T19:00:33.403Z,9.20
2017-08-29T19:03:01.144Z,9.07
2017-08-29T19:05:32.787Z,8.90
2017-08-29T19:07:59.361Z,10.20
2017-08-29T19:10:25.957Z,9.80
2017-08-29T19:12:53.406Z,9.60
2017-08-29T19:15:22.425Z,8.60
2017-08-29T19:17:50.845Z,9.90
2017-08-29T19:20:18.083Z,9.23
2017-08-29T19:22:47.449Z,10.33
2017-08-29T19:25:18.941Z,9.60
2017-08-29T19:27:59.405Z,9.53
2017-08-29T19:30:33.653Z,10.27
2017-08-29T19:33:02.925Z,10.30
2017-08-29T19:35:29.982Z,9.53
2017-08-29T19:38:00.179Z,9.67
2017-08-29T19:40:31.766Z,10.43
2017-08-29T19:42:58.531Z,9.77
2017-08-29T19:45:25.734Z,10.20
2017-08-29T19:47:54.763Z,10.63
2017-08-29T19:50:22.196Z,9.53
2017-08-29T19:52:48.877Z,9.33
2017-08-29T19:55:18.993Z,9.73
2017-08-29T19:57:47.351Z,10.70
2017-08-29T20:00:19.626Z,10.53
2017-08-29T20:02:58.641Z,9.87
2017-08-29T20:05:27.047Z,9.90
2017-08-29T20:07:55.992Z,11.10
2017-08-29T20:10:25.813Z,10.33
2017-08-29T20:12:54.984Z,9.40
2017-08-29T20:15:26.205Z,9.90
2017-08-29T20:17:57.222Z,10.00
2017-08-29T20:20:28.760Z,10.73
2017-08-29T20:22:58.071Z,9.90
2017-08-29T20:25:24.778Z,11.27
2017-08-29T20:27:51.990Z,9.10
2017-08-29T20:30:26.989Z,10.03
2017-08-29T20:32:55.208Z,9.50
2017-08-29T20:35:21.993Z,10.13
2017-08-29T20:37:54.098Z,9.80
2017-08-29T20:40:21.763Z,10.70
2017-08-29T20:42:52.815Z,9.93
2017-08-29T20:45:24.505Z,9.87
2017-08-29T20:47:52.330Z,9.57
2017-08-29T20:50:21.869Z,9.90
2017-08-29T20:52:55.811Z,10.20
2017-08-29T20:55:24.187Z,9.10
2017-08-29T20:57:59.553Z,10.10
2017-08-29T21:00:28.447Z,10.00
2017-08-29T21:02:56.557Z,9.53
2017-08-29T21:08:28.265Z,10.40
2017-08-29T21:10:59.551Z,10.27
2017-08-29T21:13:32.834Z,11.30
2017-08-29T21:15:59.880Z,10.77
2017-08-29T21:18:30.148Z,10.33
2017-08-29T21:21:02.020Z,10.20
2017-08-29T21:23:31.322Z,9.73
2017-08-29T21:26:01.452Z,10.83
2017-08-29T21:28:31.382Z,10.27
2017-08-29T21:31:00.105Z,10.73
2017-08-29T21:33:29.243Z,10.30
2017-08-29T21:35:59.960Z,9.70
2017-08-29T21:38:32.166Z,10.50
2017-08-29T21:40:59.441Z,10.17
2017-08-29T21:43:32.547Z,9.90
2017-08-29T21:46:00.577Z,10.53
2017-08-29T21:48:32.925Z,9.80
2017-08-29T21:50:59.418Z,9.37
2017-08-29T21:53:29.000Z,10.30
2017-08-29T21:55:57.767Z,10.20
2017-08-29T21:58:31.486Z,9.77
2017-08-29T22:01:02.389Z,10.27
2017-08-29T22:03:31.502Z,10.50
2017-08-29T22:05:58.236Z,10.03
2017-08-29T22:08:30.556Z,9.93
2017-08-29T22:11:00.530Z,10.23
2017-08-29T22:13:29.873Z,9.57
2017-08-29T22:16:02.115Z,10.40
2017-08-29T22:18:32.699Z,10.10
2017-08-29T22:21:01.652Z,10.13
2017-08-29T22:23:31.878Z,9.93
2017-08-29T22:26:03.513Z,9.40
2017-08-29T22:28:30.276Z,9.43
2017-08-29T22:31:04.939Z,10.10
2017-08-29T22:33:34.278Z,9.30
2017-08-29T22:36:02.552Z,9.93
2017-08-29T22:38:31.715Z,10.50
2017-08-29T22:41:03.628Z,9.13
2017-08-29T22:43:33.763Z,8.97
2017-08-29T22:46:03.670Z,9.30
2017-08-29T22:48:55.889Z,8.90
2017-08-29T22:51:30.950Z,10.07
2017-08-29T22:54:02.619Z,9.00
2017-08-29T22:56:32.748Z,9.43
2017-08-29T22:59:02.698Z,9.97
2017-08-29T23:01:31.846Z,9.40
2017-08-29T23:04:00.608Z,9.87
2017-08-29T23:06:42.540Z,9.47
2017-08-29T23:09:12.289Z,9.63
2017-08-29T23:11:38.596Z,9.73
2017-08-29T23:14:04.988Z,9.33
2017-08-29T23:16:31.773Z,9.23
2017-08-29T23:19:01.354Z,9.20
2017-08-29T23:21:32.677Z,9.17
2017-08-29T23:24:05.440Z,9.57
2017-08-29T23:26:32.788Z,9.10
2017-08-29T23:29:00.719Z,10.40
2017-08-29T23:31:31.806Z,9.27
2017-08-29T23:34:03.054Z,8.93
2017-08-29T23:36:33.700Z,10.17
2017-08-29T23:39:03.443Z,9.97
2017-08-29T23:41:32.588Z,8.53
2017-08-29T23:44:02.525Z,9.80
2017-08-29T23:46:51.580Z,8.70
2017-08-29T23:49:31.066Z,9.20
2017-08-29T23:52:01.014Z,9.23
2017-08-29T23:54:32.628Z,9.83
2017-08-29T23:57:03.528Z,8.97
2017-08-29T23:59:33.761Z,9.23
